sensor_id;sensor_type;location;lat;lon;timestamp;P1;durP1;ratioP1;P2;durP2;ratioP2
72584;SDS011;73873;40.084;32.908;2024-01-27T00:01:56;7.67;;;2.60;;
72584;SDS011;73873;40.084;32.908;2024-01-27T00:04:23;7.72;;;2.65;;
72584;SDS011;73873;40.084;32.908;2024-01-27T00:06:50;7.13;;;2.60;;
72584;SDS011;73873;40.084;32.908;2024-01-27T00:09:17;8.10;;;2.67;;
72584;SDS011;73873;40.084;32.908;2024-01-27T00:11:44;8.55;;;2.83;;
72584;SDS011;73873;40.084;32.908;2024-01-27T00:14:11;6.73;;;2.57;;
72584;SDS011;73873;40.084;32.908;2024-01-27T00:16:38;6.82;;;2.28;;
72584;SDS011;73873;40.084;32.908;2024-01-27T00:19:05;7.25;;;2.53;;
72584;SDS011;73873;40.084;32.908;2024-01-27T00:21:32;7.40;;;2.40;;
72584;SDS011;73873;40.084;32.908;2024-01-27T00:23:59;6.90;;;2.40;;
72584;SDS011;73873;40.084;32.908;2024-01-27T00:26:26;8.13;;;2.70;;
72584;SDS011;73873;40.084;32.908;2024-01-27T00:28:54;5.95;;;2.50;;
72584;SDS011;73873;40.084;32.908;2024-01-27T00:31:21;6.60;;;2.40;;
72584;SDS011;73873;40.084;32.908;2024-01-27T00:33:48;7.13;;;2.53;;
72584;SDS011;73873;40.084;32.908;2024-01-27T00:36:15;6.10;;;2.42;;
72584;SDS011;73873;40.084;32.908;2024-01-27T00:38:43;7.67;;;2.53;;
72584;SDS011;73873;40.084;32.908;2024-01-27T00:41:15;7.05;;;2.17;;
72584;SDS011;73873;40.084;32.908;2024-01-27T00:43:43;5.85;;;2.22;;
72584;SDS011;73873;40.084;32.908;2024-01-27T00:46:10;4.68;;;1.55;;
72584;SDS011;73873;40.084;32.908;2024-01-27T00:48:37;3.85;;;1.02;;
72584;SDS011;73873;40.084;32.908;2024-01-27T00:51:04;3.80;;;1.03;;
72584;SDS011;73873;40.084;32.908;2024-01-27T00:53:31;3.97;;;1.10;;
72584;SDS011;73873;40.084;32.908;2024-01-27T00:55:58;2.92;;;0.80;;
72584;SDS011;73873;40.084;32.908;2024-01-27T00:58:25;2.75;;;0.70;;
72584;SDS011;73873;40.084;32.908;2024-01-27T01:00:52;3.55;;;0.90;;
72584;SDS011;73873;40.084;32.908;2024-01-27T01:03:19;3.27;;;0.60;;
72584;SDS011;73873;40.084;32.908;2024-01-27T01:05:46;2.85;;;0.65;;
72584;SDS011;73873;40.084;32.908;2024-01-27T01:08:13;2.72;;;0.60;;
72584;SDS011;73873;40.084;32.908;2024-01-27T01:10:40;2.85;;;0.60;;
72584;SDS011;73873;40.084;32.908;2024-01-27T01:13:07;2.28;;;0.60;;
72584;SDS011;73873;40.084;32.908;2024-01-27T01:15:34;3.20;;;0.70;;
72584;SDS011;73873;40.084;32.908;2024-01-27T01:18:01;3.05;;;0.82;;
72584;SDS011;73873;40.084;32.908;2024-01-27T01:20:29;2.97;;;0.70;;
72584;SDS011;73873;40.084;32.908;2024-01-27T01:22:56;3.05;;;0.70;;
72584;SDS011;73873;40.084;32.908;2024-01-27T01:25:23;2.60;;;0.60;;
72584;SDS011;73873;40.084;32.908;2024-01-27T01:27:50;3.00;;;0.70;;
72584;SDS011;73873;40.084;32.908;2024-01-27T01:30:17;2.60;;;0.52;;
72584;SDS011;73873;40.084;32.908;2024-01-27T01:32:44;2.30;;;0.60;;
72584;SDS011;73873;40.084;32.908;2024-01-27T01:35:11;3.38;;;0.85;;
72584;SDS011;73873;40.084;32.908;2024-01-27T01:37:38;4.03;;;0.90;;
72584;SDS011;73873;40.084;32.908;2024-01-27T01:40:06;3.67;;;0.80;;
72584;SDS011;73873;40.084;32.908;2024-01-27T01:42:33;4.25;;;0.80;;
72584;SDS011;73873;40.084;32.908;2024-01-27T01:45:00;3.80;;;0.90;;
72584;SDS011;73873;40.084;32.908;2024-01-27T01:47:27;3.72;;;0.80;;
72584;SDS011;73873;40.084;32.908;2024-01-27T01:49:54;3.50;;;1.00;;
72584;SDS011;73873;40.084;32.908;2024-01-27T01:52:23;3.40;;;0.80;;
72584;SDS011;73873;40.084;32.908;2024-01-27T01:54:50;3.38;;;0.88;;
72584;SDS011;73873;40.084;32.908;2024-01-27T01:57:17;3.25;;;0.90;;
72584;SDS011;73873;40.084;32.908;2024-01-27T01:59:45;3.35;;;0.82;;
72584;SDS011;73873;40.084;32.908;2024-01-27T02:02:12;3.42;;;0.80;;
72584;SDS011;73873;40.084;32.908;2024-01-27T02:04:42;4.20;;;0.87;;
72584;SDS011;73873;40.084;32.908;2024-01-27T02:07:10;3.90;;;1.08;;
72584;SDS011;73873;40.084;32.908;2024-01-27T02:09:37;3.67;;;1.10;;
72584;SDS011;73873;40.084;32.908;2024-01-27T02:12:07;3.72;;;1.00;;
72584;SDS011;73873;40.084;32.908;2024-01-27T02:14:41;4.38;;;1.17;;
72584;SDS011;73873;40.084;32.908;2024-01-27T02:17:08;4.03;;;0.90;;
72584;SDS011;73873;40.084;32.908;2024-01-27T02:19:35;3.20;;;0.90;;
72584;SDS011;73873;40.084;32.908;2024-01-27T02:22:02;3.28;;;0.98;;
72584;SDS011;73873;40.084;32.908;2024-01-27T02:24:29;2.90;;;0.90;;
72584;SDS011;73873;40.084;32.908;2024-01-27T02:26:56;3.88;;;0.90;;
72584;SDS011;73873;40.084;32.908;2024-01-27T02:29:23;3.13;;;0.90;;
72584;SDS011;73873;40.084;32.908;2024-01-27T02:31:50;3.13;;;0.70;;
72584;SDS011;73873;40.084;32.908;2024-01-27T02:34:18;3.30;;;0.93;;
72584;SDS011;73873;40.084;32.908;2024-01-27T02:36:45;3.92;;;1.00;;
72584;SDS011;73873;40.084;32.908;2024-01-27T02:39:12;2.80;;;0.73;;
72584;SDS011;73873;40.084;32.908;2024-01-27T02:41:39;2.80;;;0.70;;
72584;SDS011;73873;40.084;32.908;2024-01-27T02:44:06;2.80;;;0.70;;
72584;SDS011;73873;40.084;32.908;2024-01-27T02:46:33;3.20;;;0.80;;
72584;SDS011;73873;40.084;32.908;2024-01-27T02:49:00;2.88;;;0.70;;
72584;SDS011;73873;40.084;32.908;2024-01-27T02:51:27;2.85;;;0.80;;
72584;SDS011;73873;40.084;32.908;2024-01-27T02:53:57;3.67;;;0.90;;
72584;SDS011;73873;40.084;32.908;2024-01-27T02:56:24;2.92;;;0.90;;
72584;SDS011;73873;40.084;32.908;2024-01-27T02:58:51;3.20;;;0.90;;
72584;SDS011;73873;40.084;32.908;2024-01-27T03:01:18;3.42;;;0.90;;
72584;SDS011;73873;40.084;32.908;2024-01-27T03:03:45;3.10;;;0.80;;
72584;SDS011;73873;40.084;32.908;2024-01-27T03:06:12;3.03;;;0.80;;
72584;SDS011;73873;40.084;32.908;2024-01-27T03:08:39;2.75;;;0.73;;
72584;SDS011;73873;40.084;32.908;2024-01-27T03:11:06;2.80;;;0.80;;
72584;SDS011;73873;40.084;32.908;2024-01-27T03:13:33;2.72;;;0.82;;
72584;SDS011;73873;40.084;32.908;2024-01-27T03:16:00;3.13;;;0.80;;
72584;SDS011;73873;40.084;32.908;2024-01-27T03:18:27;2.30;;;0.70;;
72584;SDS011;73873;40.084;32.908;2024-01-27T03:20:54;3.05;;;1.00;;
72584;SDS011;73873;40.084;32.908;2024-01-27T03:23:21;3.47;;;1.02;;
72584;SDS011;73873;40.084;32.908;2024-01-27T03:25:49;3.50;;;0.95;;
72584;SDS011;73873;40.084;32.908;2024-01-27T03:28:16;3.40;;;0.82;;
72584;SDS011;73873;40.084;32.908;2024-01-27T03:30:43;6.17;;;1.00;;
72584;SDS011;73873;40.084;32.908;2024-01-27T03:33:10;4.00;;;0.82;;
72584;SDS011;73873;40.084;32.908;2024-01-27T03:35:37;4.35;;;0.93;;
72584;SDS011;73873;40.084;32.908;2024-01-27T03:38:05;2.60;;;0.70;;
72584;SDS011;73873;40.084;32.908;2024-01-27T03:40:32;2.90;;;0.90;;
72584;SDS011;73873;40.084;32.908;2024-01-27T03:42:59;2.93;;;0.73;;
72584;SDS011;73873;40.084;32.908;2024-01-27T03:45:26;2.72;;;0.70;;
72584;SDS011;73873;40.084;32.908;2024-01-27T03:47:53;2.97;;;0.88;;
72584;SDS011;73873;40.084;32.908;2024-01-27T03:50:20;3.50;;;1.00;;
72584;SDS011;73873;40.084;32.908;2024-01-27T03:52:47;2.92;;;0.70;;
72584;SDS011;73873;40.084;32.908;2024-01-27T03:55:14;3.00;;;0.73;;
72584;SDS011;73873;40.084;32.908;2024-01-27T03:57:41;2.67;;;0.68;;
72584;SDS011;73873;40.084;32.908;2024-01-27T04:00:09;2.40;;;0.60;;
72584;SDS011;73873;40.084;32.908;2024-01-27T04:02:37;2.28;;;0.60;;
72584;SDS011;73873;40.084;32.908;2024-01-27T04:05:05;2.40;;;0.65;;
72584;SDS011;73873;40.084;32.908;2024-01-27T04:07:32;2.80;;;0.70;;
72584;SDS011;73873;40.084;32.908;2024-01-27T04:10:01;2.50;;;0.60;;
72584;SDS011;73873;40.084;32.908;2024-01-27T04:12:29;2.15;;;0.60;;
72584;SDS011;73873;40.084;32.908;2024-01-27T04:14:57;2.60;;;0.70;;
72584;SDS011;73873;40.084;32.908;2024-01-27T04:17:25;3.10;;;0.70;;
72584;SDS011;73873;40.084;32.908;2024-01-27T04:19:52;2.97;;;0.90;;
72584;SDS011;73873;40.084;32.908;2024-01-27T04:22:19;2.97;;;0.80;;
72584;SDS011;73873;40.084;32.908;2024-01-27T04:24:46;2.55;;;0.70;;
72584;SDS011;73873;40.084;32.908;2024-01-27T04:27:13;2.78;;;0.80;;
72584;SDS011;73873;40.084;32.908;2024-01-27T04:29:40;3.38;;;0.90;;
72584;SDS011;73873;40.084;32.908;2024-01-27T04:32:07;3.10;;;0.90;;
72584;SDS011;73873;40.084;32.908;2024-01-27T04:34:34;3.40;;;0.73;;
72584;SDS011;73873;40.084;32.908;2024-01-27T04:37:01;3.03;;;0.70;;
72584;SDS011;73873;40.084;32.908;2024-01-27T04:39:28;2.40;;;0.70;;
72584;SDS011;73873;40.084;32.908;2024-01-27T04:41:55;2.13;;;0.55;;
72584;SDS011;73873;40.084;32.908;2024-01-27T04:44:22;2.07;;;0.57;;
72584;SDS011;73873;40.084;32.908;2024-01-27T04:46:49;2.15;;;0.52;;
72584;SDS011;73873;40.084;32.908;2024-01-27T04:49:16;2.72;;;0.70;;
72584;SDS011;73873;40.084;32.908;2024-01-27T04:51:43;2.28;;;0.60;;
72584;SDS011;73873;40.084;32.908;2024-01-27T04:54:11;2.70;;;0.60;;
72584;SDS011;73873;40.084;32.908;2024-01-27T04:56:38;2.50;;;0.63;;
72584;SDS011;73873;40.084;32.908;2024-01-27T04:59:05;3.10;;;0.70;;
72584;SDS011;73873;40.084;32.908;2024-01-27T05:01:32;2.58;;;0.65;;
72584;SDS011;73873;40.084;32.908;2024-01-27T05:03:59;2.65;;;0.65;;
72584;SDS011;73873;40.084;32.908;2024-01-27T05:06:26;2.67;;;0.75;;
72584;SDS011;73873;40.084;32.908;2024-01-27T05:08:54;3.20;;;0.80;;
72584;SDS011;73873;40.084;32.908;2024-01-27T05:11:30;3.40;;;0.90;;
72584;SDS011;73873;40.084;32.908;2024-01-27T05:13:59;3.40;;;0.93;;
72584;SDS011;73873;40.084;32.908;2024-01-27T05:16:27;3.22;;;1.00;;
72584;SDS011;73873;40.084;32.908;2024-01-27T05:18:54;3.42;;;0.95;;
72584;SDS011;73873;40.084;32.908;2024-01-27T05:21:22;3.70;;;1.10;;
72584;SDS011;73873;40.084;32.908;2024-01-27T05:23:49;4.95;;;1.60;;
72584;SDS011;73873;40.084;32.908;2024-01-27T05:26:16;4.82;;;1.70;;
72584;SDS011;73873;40.084;32.908;2024-01-27T05:28:43;4.70;;;1.30;;
72584;SDS011;73873;40.084;32.908;2024-01-27T05:31:10;4.90;;;1.50;;
72584;SDS011;73873;40.084;32.908;2024-01-27T05:33:37;5.87;;;1.80;;
72584;SDS011;73873;40.084;32.908;2024-01-27T05:36:05;4.97;;;1.80;;
72584;SDS011;73873;40.084;32.908;2024-01-27T05:38:32;6.20;;;2.00;;
72584;SDS011;73873;40.084;32.908;2024-01-27T05:41:02;6.72;;;1.90;;
72584;SDS011;73873;40.084;32.908;2024-01-27T05:46:41;6.93;;;2.47;;
72584;SDS011;73873;40.084;32.908;2024-01-27T05:49:08;7.28;;;2.40;;
72584;SDS011;73873;40.084;32.908;2024-01-27T05:51:35;9.65;;;3.13;;
72584;SDS011;73873;40.084;32.908;2024-01-27T05:54:02;7.55;;;2.80;;
72584;SDS011;73873;40.084;32.908;2024-01-27T05:56:31;7.40;;;2.90;;
72584;SDS011;73873;40.084;32.908;2024-01-27T05:58:58;7.77;;;2.60;;
72584;SDS011;73873;40.084;32.908;2024-01-27T06:01:25;7.60;;;2.60;;
72584;SDS011;73873;40.084;32.908;2024-01-27T06:03:52;7.93;;;2.60;;
72584;SDS011;73873;40.084;32.908;2024-01-27T06:06:20;6.45;;;2.47;;
72584;SDS011;73873;40.084;32.908;2024-01-27T06:08:48;7.47;;;2.42;;
72584;SDS011;73873;40.084;32.908;2024-01-27T06:11:22;8.20;;;2.90;;
72584;SDS011;73873;40.084;32.908;2024-01-27T06:13:52;8.95;;;3.28;;
72584;SDS011;73873;40.084;32.908;2024-01-27T06:16:19;8.73;;;3.17;;
72584;SDS011;73873;40.084;32.908;2024-01-27T06:18:46;9.18;;;3.33;;
72584;SDS011;73873;40.084;32.908;2024-01-27T06:21:13;8.25;;;3.00;;
72584;SDS011;73873;40.084;32.908;2024-01-27T06:23:41;8.77;;;2.77;;
72584;SDS011;73873;40.084;32.908;2024-01-27T06:26:09;8.40;;;3.30;;
72584;SDS011;73873;40.084;32.908;2024-01-27T06:28:36;8.68;;;3.08;;
72584;SDS011;73873;40.084;32.908;2024-01-27T06:31:03;9.30;;;3.50;;
72584;SDS011;73873;40.084;32.908;2024-01-27T06:33:30;8.52;;;3.15;;
72584;SDS011;73873;40.084;32.908;2024-01-27T06:35:58;12.03;;;3.43;;
72584;SDS011;73873;40.084;32.908;2024-01-27T06:38:28;6.93;;;3.30;;
72584;SDS011;73873;40.084;32.908;2024-01-27T06:40:58;9.45;;;3.47;;
72584;SDS011;73873;40.084;32.908;2024-01-27T06:43:25;7.18;;;2.63;;
72584;SDS011;73873;40.084;32.908;2024-01-27T06:45:52;7.30;;;2.35;;
72584;SDS011;73873;40.084;32.908;2024-01-27T06:48:21;6.30;;;2.03;;
72584;SDS011;73873;40.084;32.908;2024-01-27T06:50:48;8.93;;;3.42;;
72584;SDS011;73873;40.084;32.908;2024-01-27T06:53:21;7.95;;;3.40;;
72584;SDS011;73873;40.084;32.908;2024-01-27T06:55:48;17.75;;;4.20;;
72584;SDS011;73873;40.084;32.908;2024-01-27T06:58:15;4.20;;;1.20;;
72584;SDS011;73873;40.084;32.908;2024-01-27T07:00:50;3.80;;;1.00;;
72584;SDS011;73873;40.084;32.908;2024-01-27T07:03:21;3.28;;;1.00;;
72584;SDS011;73873;40.084;32.908;2024-01-27T07:05:51;3.38;;;0.90;;
72584;SDS011;73873;40.084;32.908;2024-01-27T07:08:26;2.63;;;0.60;;
72584;SDS011;73873;40.084;32.908;2024-01-27T07:10:56;2.10;;;0.60;;
72584;SDS011;73873;40.084;32.908;2024-01-27T07:13:27;2.53;;;0.53;;
72584;SDS011;73873;40.084;32.908;2024-01-27T07:16:02;2.75;;;0.75;;
72584;SDS011;73873;40.084;32.908;2024-01-27T07:18:32;3.20;;;0.80;;
72584;SDS011;73873;40.084;32.908;2024-01-27T07:21:07;2.60;;;0.70;;
72584;SDS011;73873;40.084;32.908;2024-01-27T07:23:57;2.75;;;0.70;;
72584;SDS011;73873;40.084;32.908;2024-01-27T07:26:35;3.10;;;0.87;;
72584;SDS011;73873;40.084;32.908;2024-01-27T07:29:08;3.03;;;0.70;;
72584;SDS011;73873;40.084;32.908;2024-01-27T07:31:49;2.50;;;0.70;;
72584;SDS011;73873;40.084;32.908;2024-01-27T07:34:20;2.50;;;0.50;;
72584;SDS011;73873;40.084;32.908;2024-01-27T07:36:56;2.63;;;0.50;;
72584;SDS011;73873;40.084;32.908;2024-01-27T07:39:27;2.27;;;0.60;;
72584;SDS011;73873;40.084;32.908;2024-01-27T07:41:54;2.70;;;0.73;;
72584;SDS011;73873;40.084;32.908;2024-01-27T07:44:21;2.90;;;0.70;;
72584;SDS011;73873;40.084;32.908;2024-01-27T07:46:50;2.63;;;0.65;;
72584;SDS011;73873;40.084;32.908;2024-01-27T07:49:17;2.80;;;0.80;;
72584;SDS011;73873;40.084;32.908;2024-01-27T07:51:47;1.57;;;0.40;;
72584;SDS011;73873;40.084;32.908;2024-01-27T07:54:14;1.80;;;0.40;;
72584;SDS011;73873;40.084;32.908;2024-01-27T07:56:41;2.25;;;0.50;;
72584;SDS011;73873;40.084;32.908;2024-01-27T07:59:08;2.08;;;0.50;;
72584;SDS011;73873;40.084;32.908;2024-01-27T08:01:35;1.88;;;0.50;;
72584;SDS011;73873;40.084;32.908;2024-01-27T08:04:02;2.40;;;0.60;;
72584;SDS011;73873;40.084;32.908;2024-01-27T08:06:29;2.58;;;0.60;;
72584;SDS011;73873;40.084;32.908;2024-01-27T08:08:57;2.42;;;0.70;;
72584;SDS011;73873;40.084;32.908;2024-01-27T08:11:24;3.38;;;0.60;;
72584;SDS011;73873;40.084;32.908;2024-01-27T08:13:51;2.53;;;0.60;;
72584;SDS011;73873;40.084;32.908;2024-01-27T08:16:18;2.17;;;0.53;;
72584;SDS011;73873;40.084;32.908;2024-01-27T08:18:45;2.42;;;0.63;;
72584;SDS011;73873;40.084;32.908;2024-01-27T08:21:12;2.17;;;0.57;;
72584;SDS011;73873;40.084;32.908;2024-01-27T08:23:39;3.20;;;1.00;;
72584;SDS011;73873;40.084;32.908;2024-01-27T08:26:07;2.40;;;0.60;;
72584;SDS011;73873;40.084;32.908;2024-01-27T08:28:34;2.63;;;0.60;;
72584;SDS011;73873;40.084;32.908;2024-01-27T08:31:03;2.70;;;0.60;;
72584;SDS011;73873;40.084;32.908;2024-01-27T08:33:30;2.50;;;0.65;;
72584;SDS011;73873;40.084;32.908;2024-01-27T08:36:00;2.60;;;0.75;;
72584;SDS011;73873;40.084;32.908;2024-01-27T08:38:38;3.03;;;0.93;;
72584;SDS011;73873;40.084;32.908;2024-01-27T08:41:08;2.33;;;0.70;;
72584;SDS011;73873;40.084;32.908;2024-01-27T08:43:41;3.72;;;0.90;;
72584;SDS011;73873;40.084;32.908;2024-01-27T08:46:08;2.70;;;0.80;;
72584;SDS011;73873;40.084;32.908;2024-01-27T08:48:39;3.10;;;0.90;;
72584;SDS011;73873;40.084;32.908;2024-01-27T08:51:17;2.75;;;1.00;;
72584;SDS011;73873;40.084;32.908;2024-01-27T08:53:47;3.03;;;1.00;;
72584;SDS011;73873;40.084;32.908;2024-01-27T08:56:17;3.28;;;1.27;;
72584;SDS011;73873;40.084;32.908;2024-01-27T08:58:51;3.88;;;1.10;;
72584;SDS011;73873;40.084;32.908;2024-01-27T09:01:28;3.58;;;1.23;;
72584;SDS011;73873;40.084;32.908;2024-01-27T09:03:55;3.00;;;1.00;;
72584;SDS011;73873;40.084;32.908;2024-01-27T09:09:03;3.40;;;1.00;;
72584;SDS011;73873;40.084;32.908;2024-01-27T09:11:30;3.63;;;1.45;;
72584;SDS011;73873;40.084;32.908;2024-01-27T09:14:03;3.20;;;1.00;;
72584;SDS011;73873;40.084;32.908;2024-01-27T09:16:55;3.42;;;1.23;;
72584;SDS011;73873;40.084;32.908;2024-01-27T09:19:39;3.37;;;0.90;;
72584;SDS011;73873;40.084;32.908;2024-01-27T09:25:14;2.50;;;0.80;;
72584;SDS011;73873;40.084;32.908;2024-01-27T09:27:44;2.70;;;0.80;;
72584;SDS011;73873;40.084;32.908;2024-01-27T09:30:16;3.40;;;0.85;;
72584;SDS011;73873;40.084;32.908;2024-01-27T09:33:05;3.40;;;0.87;;
72584;SDS011;73873;40.084;32.908;2024-01-27T09:35:33;2.90;;;0.93;;
72584;SDS011;73873;40.084;32.908;2024-01-27T09:38:02;3.40;;;1.10;;
72584;SDS011;73873;40.084;32.908;2024-01-27T09:40:29;3.33;;;1.23;;
72584;SDS011;73873;40.084;32.908;2024-01-27T09:43:02;3.90;;;1.15;;
72584;SDS011;73873;40.084;32.908;2024-01-27T09:45:30;3.37;;;1.10;;
72584;SDS011;73873;40.084;32.908;2024-01-27T09:47:57;3.30;;;1.17;;
72584;SDS011;73873;40.084;32.908;2024-01-27T09:50:24;3.72;;;1.10;;
72584;SDS011;73873;40.084;32.908;2024-01-27T09:52:52;3.40;;;1.30;;
72584;SDS011;73873;40.084;32.908;2024-01-27T09:55:19;3.45;;;1.17;;
72584;SDS011;73873;40.084;32.908;2024-01-27T09:57:46;2.90;;;1.00;;
72584;SDS011;73873;40.084;32.908;2024-01-27T10:00:18;3.92;;;1.60;;
72584;SDS011;73873;40.084;32.908;2024-01-27T10:02:46;5.00;;;1.40;;
72584;SDS011;73873;40.084;32.908;2024-01-27T10:05:14;3.95;;;1.30;;
72584;SDS011;73873;40.084;32.908;2024-01-27T10:07:42;2.72;;;0.88;;
72584;SDS011;73873;40.084;32.908;2024-01-27T10:10:09;3.07;;;1.00;;
72584;SDS011;73873;40.084;32.908;2024-01-27T10:12:40;4.25;;;1.00;;
72584;SDS011;73873;40.084;32.908;2024-01-27T10:15:23;3.42;;;0.82;;
72584;SDS011;73873;40.084;32.908;2024-01-27T10:17:50;2.50;;;0.60;;
72584;SDS011;73873;40.084;32.908;2024-01-27T10:20:18;2.53;;;0.65;;
72584;SDS011;73873;40.084;32.908;2024-01-27T10:22:46;2.60;;;0.63;;
72584;SDS011;73873;40.084;32.908;2024-01-27T10:25:13;9.85;;;3.05;;
72584;SDS011;73873;40.084;32.908;2024-01-27T10:27:46;3.45;;;1.00;;
72584;SDS011;73873;40.084;32.908;2024-01-27T10:30:19;2.40;;;0.60;;
72584;SDS011;73873;40.084;32.908;2024-01-27T10:32:55;2.58;;;0.77;;
72584;SDS011;73873;40.084;32.908;2024-01-27T10:35:23;2.80;;;0.90;;
72584;SDS011;73873;40.084;32.908;2024-01-27T10:37:53;3.28;;;0.80;;
72584;SDS011;73873;40.084;32.908;2024-01-27T10:40:31;3.03;;;0.98;;
72584;SDS011;73873;40.084;32.908;2024-01-27T10:43:07;3.03;;;0.90;;
72584;SDS011;73873;40.084;32.908;2024-01-27T10:45:40;3.10;;;1.00;;
72584;SDS011;73873;40.084;32.908;2024-01-27T10:48:09;3.33;;;1.27;;
72584;SDS011;73873;40.084;32.908;2024-01-27T10:50:38;3.30;;;1.55;;
72584;SDS011;73873;40.084;32.908;2024-01-27T10:53:23;3.17;;;1.05;;
72584;SDS011;73873;40.084;32.908;2024-01-27T10:55:54;3.80;;;1.60;;
72584;SDS011;73873;40.084;32.908;2024-01-27T10:58:27;3.50;;;1.30;;
72584;SDS011;73873;40.084;32.908;2024-01-27T11:00:57;4.53;;;1.90;;
72584;SDS011;73873;40.084;32.908;2024-01-27T11:03:26;4.00;;;1.70;;
72584;SDS011;73873;40.084;32.908;2024-01-27T11:05:55;4.30;;;1.90;;
72584;SDS011;73873;40.084;32.908;2024-01-27T11:08:24;4.63;;;1.85;;
72584;SDS011;73873;40.084;32.908;2024-01-27T11:10:52;4.78;;;2.00;;
72584;SDS011;73873;40.084;32.908;2024-01-27T11:13:19;4.80;;;2.10;;
72584;SDS011;73873;40.084;32.908;2024-01-27T11:15:52;4.35;;;1.73;;
72584;SDS011;73873;40.084;32.908;2024-01-27T11:18:20;5.35;;;2.20;;
72584;SDS011;73873;40.084;32.908;2024-01-27T11:20:53;4.15;;;1.70;;
72584;SDS011;73873;40.084;32.908;2024-01-27T11:23:30;3.90;;;1.85;;
72584;SDS011;73873;40.084;32.908;2024-01-27T11:26:02;3.73;;;1.50;;
72584;SDS011;73873;40.084;32.908;2024-01-27T11:28:32;3.80;;;1.60;;
72584;SDS011;73873;40.084;32.908;2024-01-27T11:31:05;4.10;;;1.60;;
72584;SDS011;73873;40.084;32.908;2024-01-27T11:33:33;3.50;;;1.20;;
72584;SDS011;73873;40.084;32.908;2024-01-27T11:36:03;4.32;;;1.40;;
72584;SDS011;73873;40.084;32.908;2024-01-27T11:38:32;3.20;;;1.27;;
72584;SDS011;73873;40.084;32.908;2024-01-27T11:40:59;4.32;;;1.35;;
72584;SDS011;73873;40.084;32.908;2024-01-27T11:43:27;3.85;;;1.30;;
72584;SDS011;73873;40.084;32.908;2024-01-27T11:46:00;3.53;;;1.30;;
72584;SDS011;73873;40.084;32.908;2024-01-27T11:48:28;4.40;;;1.80;;
72584;SDS011;73873;40.084;32.908;2024-01-27T11:51:11;3.70;;;1.70;;
72584;SDS011;73873;40.084;32.908;2024-01-27T11:53:39;3.90;;;1.50;;
72584;SDS011;73873;40.084;32.908;2024-01-27T11:56:06;4.47;;;1.70;;
72584;SDS011;73873;40.084;32.908;2024-01-27T11:58:33;4.22;;;1.50;;
72584;SDS011;73873;40.084;32.908;2024-01-27T12:01:00;4.35;;;1.42;;
72584;SDS011;73873;40.084;32.908;2024-01-27T12:03:28;4.23;;;1.60;;
72584;SDS011;73873;40.084;32.908;2024-01-27T12:05:56;3.83;;;1.40;;
72584;SDS011;73873;40.084;32.908;2024-01-27T12:08:24;3.80;;;1.30;;
72584;SDS011;73873;40.084;32.908;2024-01-27T12:10:51;3.33;;;1.10;;
72584;SDS011;73873;40.084;32.908;2024-01-27T12:13:18;3.80;;;1.13;;
72584;SDS011;73873;40.084;32.908;2024-01-27T12:15:56;3.40;;;1.20;;
72584;SDS011;73873;40.084;32.908;2024-01-27T12:18:26;4.15;;;1.25;;
72584;SDS011;73873;40.084;32.908;2024-01-27T12:20:55;3.33;;;1.10;;
72584;SDS011;73873;40.084;32.908;2024-01-27T12:23:23;5.03;;;1.48;;
72584;SDS011;73873;40.084;32.908;2024-01-27T12:25:53;3.60;;;1.30;;
72584;SDS011;73873;40.084;32.908;2024-01-27T12:28:25;3.53;;;1.20;;
72584;SDS011;73873;40.084;32.908;2024-01-27T12:30:54;3.38;;;1.20;;
72584;SDS011;73873;40.084;32.908;2024-01-27T12:33:23;3.22;;;1.13;;
72584;SDS011;73873;40.084;32.908;2024-01-27T12:35:51;3.38;;;1.30;;
72584;SDS011;73873;40.084;32.908;2024-01-27T12:38:18;4.05;;;1.23;;
72584;SDS011;73873;40.084;32.908;2024-01-27T12:40:45;3.40;;;1.30;;
72584;SDS011;73873;40.084;32.908;2024-01-27T12:43:12;3.63;;;1.30;;
72584;SDS011;73873;40.084;32.908;2024-01-27T12:45:39;4.07;;;1.15;;
72584;SDS011;73873;40.084;32.908;2024-01-27T12:48:08;3.78;;;1.30;;
72584;SDS011;73873;40.084;32.908;2024-01-27T12:50:35;3.92;;;1.30;;
72584;SDS011;73873;40.084;32.908;2024-01-27T12:53:15;3.77;;;1.40;;
72584;SDS011;73873;40.084;32.908;2024-01-27T13:02:52;3.25;;;1.10;;
72584;SDS011;73873;40.084;32.908;2024-01-27T13:05:20;3.40;;;1.40;;
72584;SDS011;73873;40.084;32.908;2024-01-27T13:07:47;3.70;;;1.23;;
72584;SDS011;73873;40.084;32.908;2024-01-27T13:10:14;3.92;;;1.30;;
72584;SDS011;73873;40.084;32.908;2024-01-27T13:12:41;3.90;;;1.30;;
72584;SDS011;73873;40.084;32.908;2024-01-27T13:15:08;4.50;;;1.30;;
72584;SDS011;73873;40.084;32.908;2024-01-27T13:17:35;3.25;;;1.05;;
72584;SDS011;73873;40.084;32.908;2024-01-27T13:20:02;3.40;;;1.20;;
72584;SDS011;73873;40.084;32.908;2024-01-27T13:22:29;4.20;;;1.35;;
72584;SDS011;73873;40.084;32.908;2024-01-27T13:24:56;5.05;;;1.50;;
72584;SDS011;73873;40.084;32.908;2024-01-27T13:27:23;4.32;;;1.83;;
72584;SDS011;73873;40.084;32.908;2024-01-27T13:29:52;4.22;;;1.50;;
72584;SDS011;73873;40.084;32.908;2024-01-27T13:32:19;4.77;;;1.83;;
72584;SDS011;73873;40.084;32.908;2024-01-27T13:34:46;5.18;;;2.05;;
72584;SDS011;73873;40.084;32.908;2024-01-27T13:37:13;4.68;;;1.73;;
72584;SDS011;73873;40.084;32.908;2024-01-27T13:39:40;4.47;;;2.00;;
72584;SDS011;73873;40.084;32.908;2024-01-27T13:42:10;4.40;;;1.80;;
72584;SDS011;73873;40.084;32.908;2024-01-27T13:44:37;4.70;;;1.60;;
72584;SDS011;73873;40.084;32.908;2024-01-27T13:47:04;4.63;;;1.50;;
72584;SDS011;73873;40.084;32.908;2024-01-27T13:49:31;4.28;;;1.70;;
72584;SDS011;73873;40.084;32.908;2024-01-27T13:51:59;4.35;;;1.58;;
72584;SDS011;73873;40.084;32.908;2024-01-27T13:54:30;3.72;;;1.35;;
72584;SDS011;73873;40.084;32.908;2024-01-27T13:56:57;4.33;;;1.60;;
72584;SDS011;73873;40.084;32.908;2024-01-27T13:59:24;4.93;;;1.63;;
72584;SDS011;73873;40.084;32.908;2024-01-27T14:01:51;4.72;;;1.63;;
72584;SDS011;73873;40.084;32.908;2024-01-27T14:04:18;5.85;;;1.70;;
72584;SDS011;73873;40.084;32.908;2024-01-27T14:06:45;3.90;;;1.30;;
72584;SDS011;73873;40.084;32.908;2024-01-27T14:09:13;4.80;;;1.67;;
72584;SDS011;73873;40.084;32.908;2024-01-27T14:11:40;4.20;;;1.58;;
72584;SDS011;73873;40.084;32.908;2024-01-27T14:14:07;4.70;;;1.55;;
72584;SDS011;73873;40.084;32.908;2024-01-27T14:16:34;4.40;;;1.50;;
72584;SDS011;73873;40.084;32.908;2024-01-27T14:19:04;4.82;;;1.80;;
72584;SDS011;73873;40.084;32.908;2024-01-27T14:21:32;4.93;;;1.73;;
72584;SDS011;73873;40.084;32.908;2024-01-27T14:23:59;4.57;;;1.60;;
72584;SDS011;73873;40.084;32.908;2024-01-27T14:26:27;3.88;;;1.48;;
72584;SDS011;73873;40.084;32.908;2024-01-27T14:29:05;4.25;;;1.40;;
72584;SDS011;73873;40.084;32.908;2024-01-27T14:31:32;4.25;;;1.50;;
72584;SDS011;73873;40.084;32.908;2024-01-27T14:33:59;4.23;;;1.40;;
72584;SDS011;73873;40.084;32.908;2024-01-27T14:36:26;4.50;;;1.40;;
72584;SDS011;73873;40.084;32.908;2024-01-27T14:38:53;4.63;;;1.67;;
72584;SDS011;73873;40.084;32.908;2024-01-27T14:41:20;4.18;;;1.33;;
72584;SDS011;73873;40.084;32.908;2024-01-27T14:43:47;3.95;;;1.48;;
72584;SDS011;73873;40.084;32.908;2024-01-27T14:46:14;4.50;;;1.50;;
72584;SDS011;73873;40.084;32.908;2024-01-27T14:48:41;4.53;;;1.45;;
72584;SDS011;73873;40.084;32.908;2024-01-27T14:51:08;4.68;;;1.70;;
72584;SDS011;73873;40.084;32.908;2024-01-27T14:53:35;3.65;;;1.45;;
72584;SDS011;73873;40.084;32.908;2024-01-27T14:56:06;4.40;;;1.70;;
72584;SDS011;73873;40.084;32.908;2024-01-27T14:58:38;4.27;;;1.93;;